Time;durP1;ratioP1;P1;durP2;ratioP2;P2;SDS_P1;SDS_P2;PMS_P1;PMS_P2;Temp;Humidity;BMP_temperature;BMP_pressure;BME280_temperature;BME280_humidity;BME280_pressure;Samples;Min_cycle;Max_cycle;Signal;HPM_P1;HPM_P2
2023/07/13 00:01:24;;;;;;;3.15;1.48;;;;;;;;;;5022922;28;20076;-62
2023/07/13 00:03:53;;;;;;;2.85;1.75;;;;;;;;;;5018819;28;20553;-58
2023/07/13 00:06:21;;;;;;;2.97;1.70;;;;;;;;;;5018644;28;20140;-59
2023/07/13 00:08:49;;;;;;;3.30;1.33;;;;;;;;;;5017936;28;20103;-59
2023/07/13 00:11:18;;;;;;;4.15;1.80;;;;;;;;;;5021515;28;20379;-61
2023/07/13 00:13:47;;;;;;;3.92;1.70;;;;;;;;;;5020002;28;20122;-58
2023/07/13 00:16:18;;;;;;;2.58;1.60;;;;;;;;;;5023076;28;20076;-61
2023/07/13 00:18:47;;;;;;;5.20;1.85;;;;;;;;;;5017702;28;20129;-60
2023/07/13 00:21:15;;;;;;;5.03;2.00;;;;;;;;;;5019964;28;20045;-61
2023/07/13 00:23:44;;;;;;;3.97;1.60;;;;;;;;;;5020412;28;20107;-62
2023/07/13 00:26:13;;;;;;;2.75;1.67;;;;;;;;;;5021870;28;20406;-61
2023/07/13 00:28:42;;;;;;;4.07;1.67;;;;;;;;;;5023267;28;20054;-63
2023/07/13 00:31:10;;;;;;;3.17;1.70;;;;;;;;;;5022371;28;20068;-63
2023/07/13 00:33:40;;;;;;;2.35;1.55;;;;;;;;;;5024744;28;20041;-61
2023/07/13 00:36:09;;;;;;;3.17;1.55;;;;;;;;;;5025726;28;20046;-65
2023/07/13 00:38:38;;;;;;;3.95;1.65;;;;;;;;;;5022296;28;20430;-62
2023/07/13 00:41:06;;;;;;;2.20;1.63;;;;;;;;;;5021389;28;20524;-61
2023/07/13 00:43:35;;;;;;;3.65;1.58;;;;;;;;;;5025168;28;20124;-60
2023/07/13 00:46:21;;;;;;;2.15;1.40;;;;;;;;;;5021004;28;20053;-68
2023/07/13 00:48:51;;;;;;;4.07;1.65;;;;;;;;;;5024357;28;20406;-61
2023/07/13 00:51:22;;;;;;;1.48;1.05;;;;;;;;;;5023807;28;20106;-62
2023/07/13 00:53:51;;;;;;;1.98;1.35;;;;;;;;;;5018743;28;20100;-63
2023/07/13 00:56:19;;;;;;;1.77;1.48;;;;;;;;;;5027283;28;20049;-68
2023/07/13 00:58:48;;;;;;;2.22;1.40;;;;;;;;;;5026015;28;20058;-60
2023/07/13 01:01:16;;;;;;;6.68;1.75;;;;;;;;;;5022728;28;20054;-61
2023/07/13 01:03:46;;;;;;;3.08;1.58;;;;;;;;;;5043760;22;20138;-66
2023/07/13 01:06:17;;;;;;;2.33;1.55;;;;;;;;;;4995620;28;20123;-66
2023/07/13 01:08:46;;;;;;;2.10;1.40;;;;;;;;;;5000535;28;20073;-65
2023/07/13 01:11:19;;;;;;;2.40;1.40;;;;;;;;;;5002354;28;20226;-65
2023/07/13 01:13:47;;;;;;;2.15;1.30;;;;;;;;;;5001331;28;20061;-65
2023/07/13 01:16:19;;;;;;;2.13;1.38;;;;;;;;;;4998005;28;20137;-65
2023/07/13 01:18:48;;;;;;;2.30;1.33;;;;;;;;;;5002240;28;20065;-65
2023/07/13 01:21:18;;;;;;;3.33;1.95;;;;;;;;;;5002125;28;20435;-65
2023/07/13 01:23:48;;;;;;;3.83;1.40;;;;;;;;;;4999407;28;20065;-65
2023/07/13 01:26:16;;;;;;;3.10;1.70;;;;;;;;;;4998955;28;20491;-64
2023/07/13 01:28:45;;;;;;;1.92;1.40;;;;;;;;;;5000349;28;20100;-64
2023/07/13 01:31:13;;;;;;;2.10;1.30;;;;;;;;;;5001163;28;20519;-65
2023/07/13 01:33:42;;;;;;;3.90;1.60;;;;;;;;;;4997811;28;20513;-64
2023/07/13 01:36:11;;;;;;;1.60;1.17;;;;;;;;;;5001275;28;20449;-64
2023/07/13 01:38:41;;;;;;;2.42;1.40;;;;;;;;;;4999340;28;20614;-65
2023/07/13 01:41:12;;;;;;;4.72;1.60;;;;;;;;;;5002040;28;20140;-64
2023/07/13 01:43:41;;;;;;;2.85;1.30;;;;;;;;;;4999256;28;20124;-64
2023/07/13 01:46:09;;;;;;;2.00;1.13;;;;;;;;;;5002135;28;20074;-64
2023/07/13 01:48:51;;;;;;;2.58;1.27;;;;;;;;;;4998796;28;20510;-65
2023/07/13 01:51:20;;;;;;;1.67;1.10;;;;;;;;;;5001021;28;20475;-65
2023/07/13 01:53:50;;;;;;;2.70;1.52;;;;;;;;;;5000999;28;20494;-66
2023/07/13 01:56:18;;;;;;;2.33;1.50;;;;;;;;;;5001275;28;20077;-65
2023/07/13 01:58:47;;;;;;;4.07;1.73;;;;;;;;;;5000372;28;20193;-64
2023/07/13 02:01:15;;;;;;;2.97;1.45;;;;;;;;;;5002248;28;20112;-64
2023/07/13 02:03:44;;;;;;;3.08;1.30;;;;;;;;;;4995928;28;20423;-64
2023/07/13 02:06:12;;;;;;;2.67;1.40;;;;;;;;;;5001871;28;20128;-64
2023/07/13 02:08:41;;;;;;;2.80;1.60;;;;;;;;;;5001699;28;20262;-64
2023/07/13 02:11:11;;;;;;;2.00;1.25;;;;;;;;;;4997602;28;20050;-64
2023/07/13 02:13:40;;;;;;;2.67;1.33;;;;;;;;;;5001322;28;20070;-65
2023/07/13 02:16:08;;;;;;;2.80;1.50;;;;;;;;;;5000382;28;20062;-64
2023/07/13 02:18:37;;;;;;;2.45;1.23;;;;;;;;;;5001209;28;20100;-64
2023/07/13 02:21:06;;;;;;;1.52;1.20;;;;;;;;;;4999893;28;20065;-63
2023/07/13 02:23:34;;;;;;;4.38;1.95;;;;;;;;;;4996540;28;20159;-64
2023/07/13 02:26:03;;;;;;;3.35;1.30;;;;;;;;;;4997832;28;20055;-64
2023/07/13 02:28:33;;;;;;;2.30;1.30;;;;;;;;;;5001012;28;20053;-66
2023/07/13 02:31:08;;;;;;;2.25;1.40;;;;;;;;;;5001456;28;20070;-64
2023/07/13 02:33:37;;;;;;;2.75;1.38;;;;;;;;;;4999025;28;20053;-64
2023/07/13 02:36:06;;;;;;;1.90;1.30;;;;;;;;;;4998461;28;20050;-62
2023/07/13 02:38:35;;;;;;;3.35;1.88;;;;;;;;;;4999813;28;20069;-63
2023/07/13 02:41:04;;;;;;;4.65;1.60;;;;;;;;;;5000776;28;20052;-63
2023/07/13 02:43:34;;;;;;;4.13;2.08;;;;;;;;;;5001551;28;20058;-65
2023/07/13 02:46:07;;;;;;;3.75;1.85;;;;;;;;;;5001056;28;20588;-64
2023/07/13 02:48:36;;;;;;;4.60;2.63;;;;;;;;;;5002364;28;20092;-65
2023/07/13 02:51:05;;;;;;;6.30;2.22;;;;;;;;;;5002538;28;20396;-64
2023/07/13 02:53:35;;;;;;;4.55;2.22;;;;;;;;;;4999406;28;20046;-64
2023/07/13 02:56:04;;;;;;;4.82;2.42;;;;;;;;;;5002150;28;20050;-64
2023/07/13 02:58:36;;;;;;;4.10;2.20;;;;;;;;;;4997336;28;20037;-64
2023/07/13 03:01:08;;;;;;;7.10;2.20;;;;;;;;;;4999425;28;20046;-67
2023/07/13 03:03:36;;;;;;;4.55;1.90;;;;;;;;;;4999421;28;20061;-64
2023/07/13 03:06:07;;;;;;;3.40;1.80;;;;;;;;;;5000290;28;20487;-65
2023/07/13 03:08:36;;;;;;;3.67;1.90;;;;;;;;;;4999289;28;20053;-64
2023/07/13 03:11:06;;;;;;;4.38;2.15;;;;;;;;;;4996795;28;20133;-64
2023/07/13 03:13:36;;;;;;;4.45;2.40;;;;;;;;;;4998091;28;20045;-64
2023/07/13 03:16:05;;;;;;;4.57;2.38;;;;;;;;;;4998511;28;20045;-64
2023/07/13 03:18:34;;;;;;;4.60;2.65;;;;;;;;;;4999731;28;20466;-64
2023/07/13 03:21:02;;;;;;;5.63;2.10;;;;;;;;;;4998986;28;20751;-64
2023/07/13 03:23:31;;;;;;;4.40;2.22;;;;;;;;;;4999203;28;20400;-65
2023/07/13 03:26:03;;;;;;;5.18;2.03;;;;;;;;;;4998832;28;20056;-65
2023/07/13 03:28:32;;;;;;;3.38;2.10;;;;;;;;;;4999372;28;20128;-65
2023/07/13 03:31:02;;;;;;;4.70;1.98;;;;;;;;;;4998809;28;20054;-64
2023/07/13 03:33:31;;;;;;;3.60;2.05;;;;;;;;;;4999308;28;20167;-63
2023/07/13 03:36:00;;;;;;;4.53;1.90;;;;;;;;;;4999336;28;20046;-64
2023/07/13 03:38:28;;;;;;;6.60;2.10;;;;;;;;;;5000411;28;20092;-65
2023/07/13 03:40:56;;;;;;;2.45;1.67;;;;;;;;;;4995795;28;20046;-65
2023/07/13 03:43:25;;;;;;;3.50;2.35;;;;;;;;;;4996078;28;20104;-64
2023/07/13 03:45:53;;;;;;;2.67;2.10;;;;;;;;;;4997095;28;20121;-64
2023/07/13 03:48:23;;;;;;;3.75;1.98;;;;;;;;;;4998668;28;20515;-64
2023/07/13 03:50:51;;;;;;;4.70;1.80;;;;;;;;;;4998230;28;20042;-64
2023/07/13 03:53:20;;;;;;;2.85;1.98;;;;;;;;;;4996038;28;20072;-64
2023/07/13 03:55:48;;;;;;;4.10;2.03;;;;;;;;;;4998235;28;20046;-60
2023/07/13 03:58:30;;;;;;;4.47;1.98;;;;;;;;;;4995566;28;20502;-60
2023/07/13 04:01:00;;;;;;;5.43;2.53;;;;;;;;;;4997937;28;20049;-63
2023/07/13 04:03:32;;;;;;;10.20;2.10;;;;;;;;;;4995728;28;20400;-63
2023/07/13 04:06:01;;;;;;;3.97;1.80;;;;;;;;;;4997536;28;20058;-66
2023/07/13 04:08:30;;;;;;;6.57;1.95;;;;;;;;;;4997784;28;20055;-65
2023/07/13 04:10:59;;;;;;;7.35;2.10;;;;;;;;;;5000393;28;20058;-64
2023/07/13 04:13:27;;;;;;;4.38;2.03;;;;;;;;;;4999026;28;20507;-63
2023/07/13 04:15:56;;;;;;;4.43;2.08;;;;;;;;;;4998980;28;20109;-62
2023/07/13 04:18:24;;;;;;;5.05;1.98;;;;;;;;;;4998923;28;20458;-64
2023/07/13 04:20:54;;;;;;;3.67;1.70;;;;;;;;;;4997074;28;20046;-64
2023/07/13 04:23:22;;;;;;;3.83;2.03;;;;;;;;;;4996212;28;20428;-67
2023/07/13 04:25:53;;;;;;;3.05;1.75;;;;;;;;;;4996599;28;20530;-64
2023/07/13 04:28:21;;;;;;;3.72;2.08;;;;;;;;;;4994829;28;20109;-65
2023/07/13 04:30:50;;;;;;;3.72;1.65;;;;;;;;;;4995614;28;20046;-66
2023/07/13 04:33:22;;;;;;;3.13;1.45;;;;;;;;;;4995307;28;20045;-65
2023/07/13 04:35:54;;;;;;;3.70;1.50;;;;;;;;;;4995500;28;20054;-63
2023/07/13 04:38:25;;;;;;;2.42;1.77;;;;;;;;;;4995965;28;20133;-63
2023/07/13 04:40:53;;;;;;;3.47;1.42;;;;;;;;;;4998995;28;20045;-63
2023/07/13 04:43:22;;;;;;;2.53;1.58;;;;;;;;;;4994258;28;20149;-64
2023/07/13 04:45:51;;;;;;;2.72;1.33;;;;;;;;;;4992548;28;20621;-65
2023/07/13 04:48:20;;;;;;;3.33;1.75;;;;;;;;;;4995238;28;20415;-63
2023/07/13 04:50:49;;;;;;;2.72;1.60;;;;;;;;;;5000595;28;20568;-63
2023/07/13 04:53:18;;;;;;;16.25;2.10;;;;;;;;;;4997562;28;20064;-63
2023/07/13 04:55:48;;;;;;;4.45;1.73;;;;;;;;;;4984990;28;20416;-63
2023/07/13 04:58:16;;;;;;;4.82;2.10;;;;;;;;;;4997433;28;20045;-65
2023/07/13 05:00:45;;;;;;;4.10;1.30;;;;;;;;;;4993101;28;20189;-65
2023/07/13 05:03:13;;;;;;;3.70;1.38;;;;;;;;;;4998236;28;20050;-63
2023/07/13 05:05:41;;;;;;;2.08;1.42;;;;;;;;;;4989436;28;20085;-63
2023/07/13 05:08:10;;;;;;;1.95;1.30;;;;;;;;;;4995121;28;20536;-62
2023/07/13 05:10:38;;;;;;;3.38;1.67;;;;;;;;;;4995057;28;20038;-63
2023/07/13 05:13:08;;;;;;;4.43;1.30;;;;;;;;;;4995592;28;20061;-63
2023/07/13 05:15:36;;;;;;;3.80;1.60;;;;;;;;;;4995245;28;20504;-64
2023/07/13 05:18:05;;;;;;;3.30;1.73;;;;;;;;;;4997511;28;20050;-62
2023/07/13 05:20:33;;;;;;;2.25;1.42;;;;;;;;;;4998073;28;20137;-63
2023/07/13 05:23:02;;;;;;;3.17;1.70;;;;;;;;;;4994902;28;20050;-63
2023/07/13 05:25:31;;;;;;;2.13;1.52;;;;;;;;;;4996535;28;20173;-65
2023/07/13 05:27:59;;;;;;;2.72;1.60;;;;;;;;;;4998043;28;20120;-62
2023/07/13 05:30:29;;;;;;;5.80;1.30;;;;;;;;;;4993608;28;20519;-62
2023/07/13 05:32:57;;;;;;;2.90;1.60;;;;;;;;;;5001689;28;20046;-64
2023/07/13 05:35:26;;;;;;;2.35;1.23;;;;;;;;;;4998808;28;20049;-62
2023/07/13 05:37:54;;;;;;;3.47;1.73;;;;;;;;;;4996902;28;20515;-63
2023/07/13 05:40:23;;;;;;;6.95;1.70;;;;;;;;;;4999640;28;20135;-63
2023/07/13 05:42:51;;;;;;;2.22;1.48;;;;;;;;;;4997710;28;20172;-63
2023/07/13 05:45:19;;;;;;;1.85;1.48;;;;;;;;;;4996483;28;20505;-62
2023/07/13 05:47:49;;;;;;;3.85;1.77;;;;;;;;;;5000170;28;20096;-67
2023/07/13 05:50:18;;;;;;;5.38;1.90;;;;;;;;;;5002398;28;20358;-63
2023/07/13 05:52:46;;;;;;;3.70;1.90;;;;;;;;;;5004027;28;20077;-62
2023/07/13 05:55:15;;;;;;;5.05;1.70;;;;;;;;;;5000501;28;20096;-63
2023/07/13 05:57:43;;;;;;;3.08;1.92;;;;;;;;;;4999650;28;20137;-63
2023/07/13 06:00:12;;;;;;;2.88;1.90;;;;;;;;;;5002377;28;20085;-65
2023/07/13 06:02:40;;;;;;;3.70;1.75;;;;;;;;;;5001677;28;20623;-62
2023/07/13 06:05:11;;;;;;;3.35;1.75;;;;;;;;;;5001129;28;20042;-63
2023/07/13 06:07:39;;;;;;;3.40;1.60;;;;;;;;;;5001424;28;20049;-64
2023/07/13 06:10:08;;;;;;;2.78;1.58;;;;;;;;;;4997663;28;20081;-66
2023/07/13 06:12:36;;;;;;;3.50;1.90;;;;;;;;;;4994569;28;20487;-66
2023/07/13 06:15:05;;;;;;;3.08;2.05;;;;;;;;;;4995471;28;20316;-64
2023/07/13 06:17:33;;;;;;;2.42;1.35;;;;;;;;;;4999011;28;20054;-64
2023/07/13 06:20:02;;;;;;;4.15;1.80;;;;;;;;;;4992026;28;20042;-64
2023/07/13 06:22:32;;;;;;;3.60;1.95;;;;;;;;;;4997777;28;20108;-65
2023/07/13 06:25:00;;;;;;;4.60;2.10;;;;;;;;;;4994597;28;20656;-64
2023/07/13 06:27:29;;;;;;;2.55;1.60;;;;;;;;;;4993587;28;20491;-65
2023/07/13 06:29:58;;;;;;;5.10;2.47;;;;;;;;;;4998304;28;20143;-65
2023/07/13 06:32:26;;;;;;;4.90;1.63;;;;;;;;;;4997708;28;20077;-64
2023/07/13 06:34:55;;;;;;;2.42;1.83;;;;;;;;;;4991918;28;20046;-65
2023/07/13 06:37:24;;;;;;;3.78;1.80;;;;;;;;;;4996280;28;20065;-66
2023/07/13 06:39:53;;;;;;;6.88;1.98;;;;;;;;;;4992406;28;20068;-66
2023/07/13 06:42:22;;;;;;;3.83;1.95;;;;;;;;;;4999065;28;20076;-65
2023/07/13 06:44:50;;;;;;;4.45;2.03;;;;;;;;;;4999576;28;20073;-65
2023/07/13 06:47:18;;;;;;;4.13;1.70;;;;;;;;;;5001862;28;20054;-65
2023/07/13 06:49:47;;;;;;;4.75;2.45;;;;;;;;;;5001201;28;20458;-65
2023/07/13 06:52:15;;;;;;;2.22;1.50;;;;;;;;;;4996649;28;20113;-65
2023/07/13 06:54:44;;;;;;;3.10;1.83;;;;;;;;;;4998006;28;20446;-67
2023/07/13 06:57:14;;;;;;;3.33;1.55;;;;;;;;;;4994813;28;20119;-64
2023/07/13 06:59:42;;;;;;;4.72;1.60;;;;;;;;;;4994787;28;20412;-68
2023/07/13 07:02:11;;;;;;;3.25;1.60;;;;;;;;;;4995525;28;20116;-65
2023/07/13 07:04:39;;;;;;;3.70;1.50;;;;;;;;;;4995324;28;20065;-64
2023/07/13 07:07:08;;;;;;;4.78;1.80;;;;;;;;;;4992137;28;20054;-65
2023/07/13 07:09:36;;;;;;;4.78;1.58;;;;;;;;;;4998203;28;20111;-67
2023/07/13 07:12:05;;;;;;;4.07;2.10;;;;;;;;;;4993547;28;20046;-66
2023/07/13 07:14:35;;;;;;;8.30;2.30;;;;;;;;;;4999263;28;20072;-62
2023/07/13 07:17:03;;;;;;;5.32;2.00;;;;;;;;;;4993674;28;20034;-66
2023/07/13 07:19:32;;;;;;;3.25;1.67;;;;;;;;;;4996163;28;20050;-62
2023/07/13 07:22:01;;;;;;;2.75;1.63;;;;;;;;;;5000885;28;20057;-63
2023/07/13 07:24:29;;;;;;;4.75;1.25;;;;;;;;;;4997179;28;20526;-63
2023/07/13 07:26:57;;;;;;;1.90;1.20;;;;;;;;;;4996249;28;20077;-63
2023/07/13 07:29:28;;;;;;;4.20;1.25;;;;;;;;;;4997306;28;20050;-64
2023/07/13 07:32:01;;;;;;;4.47;1.40;;;;;;;;;;4995535;28;20089;-65
2023/07/13 07:34:50;;;;;;;2.22;1.20;;;;;;;;;;4996235;28;20060;-65
2023/07/13 07:37:18;;;;;;;2.90;1.23;;;;;;;;;;4997795;28;20046;-66
2023/07/13 07:39:49;;;;;;;9.68;1.58;;;;;;;;;;4998587;28;20096;-65
2023/07/13 07:42:38;;;;;;;1.83;1.15;;;;;;;;;;4998247;28;20080;-64
2023/07/13 07:45:06;;;;;;;3.00;1.55;;;;;;;;;;4996256;28;20759;-65
2023/07/13 07:47:36;;;;;;;6.07;1.63;;;;;;;;;;4997183;28;20065;-65
2023/07/13 07:50:05;;;;;;;2.30;1.35;;;;;;;;;;4999818;28;20088;-65
2023/07/13 07:52:33;;;;;;;3.17;1.30;;;;;;;;;;4998008;28;20046;-65
2023/07/13 07:55:02;;;;;;;2.35;1.20;;;;;;;;;;4997238;28;20104;-65
2023/07/13 07:57:34;;;;;;;2.00;1.20;;;;;;;;;;4998331;28;20131;-64
2023/07/13 08:00:22;;;;;;;2.78;1.30;;;;;;;;;;5000831;28;20058;-65
2023/07/13 08:02:55;;;;;;;3.88;1.38;;;;;;;;;;4996833;28;20100;-64
2023/07/13 08:05:43;;;;;;;4.80;1.27;;;;;;;;;;4998953;28;20041;-65
2023/07/13 08:08:23;;;;;;;3.13;1.50;;;;;;;;;;4997551;28;20145;-64
2023/07/13 08:10:51;;;;;;;4.68;1.40;;;;;;;;;;5000821;28;20042;-64
2023/07/13 08:13:24;;;;;;;7.18;1.50;;;;;;;;;;4999524;28;20071;-64
2023/07/13 08:15:52;;;;;;;2.60;1.65;;;;;;;;;;4997006;28;20080;-64
2023/07/13 08:18:22;;;;;;;5.00;1.52;;;;;;;;;;4995880;28;20052;-65
2023/07/13 08:20:50;;;;;;;4.15;1.58;;;;;;;;;;4997382;28;20058;-65
2023/07/13 08:23:19;;;;;;;2.72;1.60;;;;;;;;;;5000348;28;20116;-64
2023/07/13 08:25:52;;;;;;;2.20;1.27;;;;;;;;;;4998721;28;20061;-64
2023/07/13 08:28:20;;;;;;;2.58;1.42;;;;;;;;;;4998357;28;20119;-64
2023/07/13 08:30:49;;;;;;;2.08;1.23;;;;;;;;;;4995486;28;20077;-65
2023/07/13 08:33:17;;;;;;;5.35;1.48;;;;;;;;;;4993583;28;20046;-64
2023/07/13 08:35:48;;;;;;;4.28;1.50;;;;;;;;;;4994778;28;20113;-64
2023/07/13 08:38:17;;;;;;;2.67;1.40;;;;;;;;;;5000804;28;20557;-64
2023/07/13 08:40:46;;;;;;;2.67;1.52;;;;;;;;;;4996039;28;20042;-65
2023/07/13 08:43:17;;;;;;;2.55;1.10;;;;;;;;;;4998000;28;20129;-65
2023/07/13 08:45:47;;;;;;;2.25;1.23;;;;;;;;;;4996549;28;20137;-65
2023/07/13 08:48:20;;;;;;;6.20;1.30;;;;;;;;;;4994707;28;20045;-64
2023/07/13 08:50:51;;;;;;;3.33;1.30;;;;;;;;;;5000957;28;20281;-65
2023/07/13 08:53:31;;;;;;;5.45;1.38;;;;;;;;;;5002089;28;20483;-65
2023/07/13 08:56:01;;;;;;;4.72;1.40;;;;;;;;;;4999364;28;20686;-64
2023/07/13 08:58:30;;;;;;;1.42;1.00;;;;;;;;;;5002670;28;20343;-64
2023/07/13 09:01:03;;;;;;;2.28;1.15;;;;;;;;;;4994100;28;20136;-64
2023/07/13 09:03:37;;;;;;;2.25;1.23;;;;;;;;;;4998694;28;20046;-64
2023/07/13 09:06:08;;;;;;;2.97;1.20;;;;;;;;;;4999969;28;20670;-64
2023/07/13 09:08:46;;;;;;;2.45;1.00;;;;;;;;;;5002627;28;20053;-64
2023/07/13 09:11:22;;;;;;;2.72;1.23;;;;;;;;;;4999567;28;20042;-64
2023/07/13 09:13:55;;;;;;;8.98;1.65;;;;;;;;;;4998537;28;20368;-64
2023/07/13 09:16:24;;;;;;;3.47;0.90;;;;;;;;;;4997452;28;20104;-64
2023/07/13 09:18:54;;;;;;;2.47;1.10;;;;;;;;;;5000066;28;20050;-65
2023/07/13 09:21:28;;;;;;;5.18;1.20;;;;;;;;;;5001894;28;20466;-61
2023/07/13 09:23:57;;;;;;;3.65;1.33;;;;;;;;;;5000970;28;20073;-58
2023/07/13 09:26:26;;;;;;;3.72;1.35;;;;;;;;;;5000595;28;20074;-59
2023/07/13 09:28:56;;;;;;;1.80;1.10;;;;;;;;;;5000136;28;20069;-60
2023/07/13 09:31:26;;;;;;;1.45;1.13;;;;;;;;;;4999710;28;20042;-60
2023/07/13 09:33:54;;;;;;;2.72;1.60;;;;;;;;;;4997911;28;20062;-58
2023/07/13 09:36:26;;;;;;;1.60;0.98;;;;;;;;;;5003374;28;20140;-58
2023/07/13 09:38:59;;;;;;;5.55;1.10;;;;;;;;;;4999847;28;20104;-62
2023/07/13 09:41:30;;;;;;;1.20;0.93;;;;;;;;;;5001916;28;20104;-60
2023/07/13 09:44:11;;;;;;;4.85;1.35;;;;;;;;;;4999508;28;20164;-58
2023/07/13 09:46:41;;;;;;;2.55;1.27;;;;;;;;;;4996573;28;20096;-58
2023/07/13 09:49:11;;;;;;;4.90;1.20;;;;;;;;;;4998501;28;20054;-58
2023/07/13 09:51:43;;;;;;;1.17;0.82;;;;;;;;;;4998819;28;20451;-59
2023/07/13 09:54:19;;;;;;;1.33;0.90;;;;;;;;;;4997589;28;20057;-58
2023/07/13 09:56:48;;;;;;;2.35;0.95;;;;;;;;;;4996095;28;20100;-57
2023/07/13 09:59:20;;;;;;;7.78;1.50;;;;;;;;;;4998262;28;20491;-57
2023/07/13 10:01:49;;;;;;;3.47;1.30;;;;;;;;;;4996033;28;20577;-57
2023/07/13 10:04:19;;;;;;;1.75;1.00;;;;;;;;;;4996797;28;20062;-64
2023/07/13 10:06:49;;;;;;;2.75;0.93;;;;;;;;;;5001024;28;20077;-57
2023/07/13 10:09:20;;;;;;;2.10;0.90;;;;;;;;;;4997355;28;20054;-57
2023/07/13 10:11:52;;;;;;;2.60;0.90;;;;;;;;;;4998450;28;20495;-58
2023/07/13 10:14:23;;;;;;;3.80;0.95;;;;;;;;;;5000027;28;20487;-59
2023/07/13 10:16:53;;;;;;;2.28;1.40;;;;;;;;;;4997831;28;20511;-58
2023/07/13 10:19:25;;;;;;;3.40;1.15;;;;;;;;;;5001496;28;20535;-58
2023/07/13 10:21:56;;;;;;;2.92;0.90;;;;;;;;;;4998600;28;20507;-63
2023/07/13 10:24:26;;;;;;;2.22;1.30;;;;;;;;;;5001138;28;20058;-58
2023/07/13 10:26:57;;;;;;;1.95;0.82;;;;;;;;;;4999914;28;20514;-58
2023/07/13 10:29:27;;;;;;;2.13;1.17;;;;;;;;;;4998047;28;20054;-57
2023/07/13 10:31:57;;;;;;;3.03;1.02;;;;;;;;;;4997009;28;20120;-66
2023/07/13 10:34:26;;;;;;;3.80;1.00;;;;;;;;;;4995935;28;20129;-57
2023/07/13 10:36:56;;;;;;;1.85;1.10;;;;;;;;;;4998678;28;20041;-67
2023/07/13 10:39:26;;;;;;;2.15;0.93;;;;;;;;;;4995436;28;20095;-58
2023/07/13 10:41:56;;;;;;;3.95;0.93;;;;;;;;;;5000491;28;20061;-57
2023/07/13 10:44:28;;;;;;;3.60;1.00;;;;;;;;;;4998744;28;20096;-63
2023/07/13 10:46:57;;;;;;;3.28;1.10;;;;;;;;;;4997881;28;20042;-68
2023/07/13 10:49:26;;;;;;;2.55;0.93;;;;;;;;;;4996292;28;20046;-58
2023/07/13 10:51:56;;;;;;;2.95;0.95;;;;;;;;;;4999421;28;20074;-57
2023/07/13 10:54:28;;;;;;;3.55;1.10;;;;;;;;;;4997549;28;21122;-57
2023/07/13 10:57:09;;;;;;;1.83;1.13;;;;;;;;;;4999213;28;20045;-57
2023/07/13 10:59:37;;;;;;;2.40;1.02;;;;;;;;;;4998455;28;20136;-57
2023/07/13 11:02:11;;;;;;;1.30;0.80;;;;;;;;;;4998304;28;20553;-60
2023/07/13 11:04:45;;;;;;;3.92;1.10;;;;;;;;;;4995874;28;20038;-58
2023/07/13 11:07:20;;;;;;;4.72;1.00;;;;;;;;;;4997190;28;20400;-55
2023/07/13 11:09:51;;;;;;;5.82;0.95;;;;;;;;;;5000172;28;20062;-60
2023/07/13 11:12:31;;;;;;;3.35;1.10;;;;;;;;;;4998352;28;20581;-63
2023/07/13 11:15:06;;;;;;;2.70;1.02;;;;;;;;;;4997134;28;20058;-57
2023/07/13 11:17:37;;;;;;;5.65;0.88;;;;;;;;;;4996827;28;20136;-58
2023/07/13 11:20:11;;;;;;;4.38;1.40;;;;;;;;;;5000676;28;20048;-66
2023/07/13 11:22:47;;;;;;;2.97;0.90;;;;;;;;;;4996451;28;20061;-68
2023/07/13 11:25:32;;;;;;;1.77;1.08;;;;;;;;;;4997432;28;20054;-60
2023/07/13 11:28:09;;;;;;;4.90;1.00;;;;;;;;;;4990566;28;20053;-63
2023/07/13 11:30:39;;;;;;;2.30;0.90;;;;;;;;;;4993956;28;20058;-58
2023/07/13 11:33:16;;;;;;;1.75;0.90;;;;;;;;;;4998604;28;20065;-59
2023/07/13 11:35:48;;;;;;;4.28;1.20;;;;;;;;;;4999620;28;20096;-60
2023/07/13 11:38:20;;;;;;;1.92;0.85;;;;;;;;;;4995933;28;20056;-57
2023/07/13 11:40:50;;;;;;;3.05;1.15;;;;;;;;;;4999920;28;20046;-61
2023/07/13 11:43:25;;;;;;;2.30;1.20;;;;;;;;;;4994445;28;20451;-58
2023/07/13 11:45:53;;;;;;;1.00;0.90;;;;;;;;;;4995247;28;20046;-57
2023/07/13 11:48:23;;;;;;;2.72;1.30;;;;;;;;;;4996864;28;20054;-62
2023/07/13 11:50:57;;;;;;;1.77;0.93;;;;;;;;;;4999106;28;20131;-61
2023/07/13 11:53:30;;;;;;;1.77;1.15;;;;;;;;;;4997986;28;20188;-64
2023/07/13 11:55:59;;;;;;;2.78;1.23;;;;;;;;;;4994816;28;20131;-58
2023/07/13 11:58:29;;;;;;;2.58;1.30;;;;;;;;;;4998063;28;20157;-58
2023/07/13 12:01:00;;;;;;;2.00;0.90;;;;;;;;;;4998517;28;20475;-58
2023/07/13 12:03:29;;;;;;;1.63;0.95;;;;;;;;;;4997977;28;20673;-61
2023/07/13 12:05:59;;;;;;;1.17;0.90;;;;;;;;;;4995303;28;20141;-66
2023/07/13 12:08:29;;;;;;;1.55;1.00;;;;;;;;;;4997716;28;20050;-59
2023/07/13 12:10:58;;;;;;;1.65;1.13;;;;;;;;;;4999087;28;20135;-58
2023/07/13 12:13:28;;;;;;;1.67;1.23;;;;;;;;;;4994986;28;20072;-59
2023/07/13 12:15:58;;;;;;;1.30;1.00;;;;;;;;;;4994396;28;20045;-61
2023/07/13 12:18:30;;;;;;;2.35;0.93;;;;;;;;;;4997196;28;20128;-61
2023/07/13 12:21:00;;;;;;;1.25;0.80;;;;;;;;;;4997009;28;20050;-59
2023/07/13 12:23:31;;;;;;;1.67;0.90;;;;;;;;;;4999389;28;20052;-57
2023/07/13 12:26:01;;;;;;;1.02;0.70;;;;;;;;;;4999452;28;20103;-58
2023/07/13 12:28:33;;;;;;;3.33;0.93;;;;;;;;;;5005155;28;20049;-61
2023/07/13 12:31:02;;;;;;;3.20;1.08;;;;;;;;;;5000584;28;20127;-62
2023/07/13 12:33:32;;;;;;;1.65;1.17;;;;;;;;;;4996858;28;20046;-59
2023/07/13 12:36:02;;;;;;;1.95;0.93;;;;;;;;;;5000594;28;20062;-58
2023/07/13 12:38:33;;;;;;;1.50;1.13;;;;;;;;;;5001887;28;20056;-61
2023/07/13 12:41:03;;;;;;;2.40;0.98;;;;;;;;;;5003878;28;20462;-59
2023/07/13 12:43:36;;;;;;;1.88;0.90;;;;;;;;;;5000039;28;20128;-58
2023/07/13 12:46:06;;;;;;;3.72;1.30;;;;;;;;;;4999262;28;20329;-58
2023/07/13 12:48:40;;;;;;;2.17;1.10;;;;;;;;;;4997202;28;20153;-57
2023/07/13 12:51:22;;;;;;;3.42;1.17;;;;;;;;;;5000014;28;20510;-58
2023/07/13 12:53:55;;;;;;;2.15;1.05;;;;;;;;;;5003874;28;20105;-58
2023/07/13 12:56:26;;;;;;;2.25;0.90;;;;;;;;;;4998721;28;20182;-58
2023/07/13 12:58:58;;;;;;;1.35;0.80;;;;;;;;;;5003498;28;20379;-58
2023/07/13 13:01:28;;;;;;;2.08;1.48;;;;;;;;;;5003170;28;20157;-57
2023/07/13 13:03:57;;;;;;;4.20;1.20;;;;;;;;;;5001171;28;20049;-59
2023/07/13 13:06:27;;;;;;;1.40;0.90;;;;;;;;;;4986348;28;20058;-58
2023/07/13 13:08:58;;;;;;;2.88;0.85;;;;;;;;;;4982741;28;20143;-62
2023/07/13 13:11:27;;;;;;;2.95;0.85;;;;;;;;;;4984086;28;20058;-58
2023/07/13 13:13:56;;;;;;;2.05;1.00;;;;;;;;;;4987424;28;20151;-56
2023/07/13 13:16:25;;;;;;;1.63;0.90;;;;;;;;;;5002704;28;20549;-67
2023/07/13 13:18:56;;;;;;;3.35;1.08;;;;;;;;;;4999467;28;20056;-64
2023/07/13 13:21:25;;;;;;;1.98;0.98;;;;;;;;;;4997210;28;20046;-59
2023/07/13 13:23:54;;;;;;;2.28;0.90;;;;;;;;;;4996407;28;20111;-58
2023/07/13 13:26:24;;;;;;;3.70;1.23;;;;;;;;;;4979275;28;20518;-59
2023/07/13 13:28:53;;;;;;;4.65;1.10;;;;;;;;;;4980644;28;20066;-58
2023/07/13 13:31:22;;;;;;;4.30;0.88;;;;;;;;;;4978174;28;20046;-67
2023/07/13 13:33:50;;;;;;;1.20;0.85;;;;;;;;;;4980552;28;20050;-58
2023/07/13 13:36:19;;;;;;;1.92;0.90;;;;;;;;;;4982382;28;21492;-58
2023/07/13 13:38:48;;;;;;;1.92;0.85;;;;;;;;;;4983675;28;20415;-58
2023/07/13 13:41:17;;;;;;;1.45;1.00;;;;;;;;;;4979222;28;20120;-66
2023/07/13 13:43:47;;;;;;;3.63;1.13;;;;;;;;;;4977518;28;20081;-62
2023/07/13 13:46:20;;;;;;;1.63;0.90;;;;;;;;;;5000095;28;20046;-58
2023/07/13 13:48:48;;;;;;;2.78;1.02;;;;;;;;;;5004432;28;20056;-56
2023/07/13 13:51:18;;;;;;;2.42;0.88;;;;;;;;;;5001484;28;20042;-66
2023/07/13 13:53:46;;;;;;;3.80;0.95;;;;;;;;;;4998952;28;20052;-59
2023/07/13 13:56:15;;;;;;;2.78;1.08;;;;;;;;;;4997013;28;20058;-57
2023/07/13 13:58:44;;;;;;;1.67;0.82;;;;;;;;;;4999667;28;20052;-57
2023/07/13 14:01:16;;;;;;;5.22;0.80;;;;;;;;;;4995298;28;20491;-58
2023/07/13 14:03:45;;;;;;;2.58;0.93;;;;;;;;;;4996541;28;20443;-60
2023/07/13 14:06:14;;;;;;;1.52;0.73;;;;;;;;;;4996130;28;20804;-60
2023/07/13 14:08:43;;;;;;;1.10;0.60;;;;;;;;;;4997690;28;20057;-63
2023/07/13 14:11:12;;;;;;;1.48;0.98;;;;;;;;;;4995912;28;20323;-59
2023/07/13 14:13:43;;;;;;;1.05;0.60;;;;;;;;;;4996267;28;20719;-60
2023/07/13 14:16:13;;;;;;;1.35;0.90;;;;;;;;;;4996202;28;20050;-57
2023/07/13 14:18:44;;;;;;;1.50;0.90;;;;;;;;;;4996741;28;20291;-59
2023/07/13 14:21:16;;;;;;;1.45;0.70;;;;;;;;;;4997863;28;20054;-57
2023/07/13 14:23:45;;;;;;;2.55;0.93;;;;;;;;;;4996302;28;20256;-63
2023/07/13 14:26:14;;;;;;;1.77;0.70;;;;;;;;;;4995973;28;20100;-61
2023/07/13 14:28:43;;;;;;;1.60;0.90;;;;;;;;;;4998325;28;20119;-59
2023/07/13 14:31:12;;;;;;;1.48;1.00;;;;;;;;;;4993325;28;20050;-61
2023/07/13 14:33:40;;;;;;;3.03;0.90;;;;;;;;;;4994449;28;20060;-67
2023/07/13 14:36:18;;;;;;;1.88;0.90;;;;;;;;;;4997616;28;20053;-58
2023/07/13 14:38:46;;;;;;;1.10;0.70;;;;;;;;;;5000392;28;20412;-64
2023/07/13 14:41:15;;;;;;;0.95;0.80;;;;;;;;;;5000824;28;20128;-67
2023/07/13 14:43:43;;;;;;;3.17;1.00;;;;;;;;;;4997494;28;20137;-58
2023/07/13 14:46:19;;;;;;;1.30;0.70;;;;;;;;;;4997894;28;20083;-58
2023/07/13 14:48:48;;;;;;;1.98;1.17;;;;;;;;;;4997049;28;20442;-59
2023/07/13 14:51:18;;;;;;;4.20;1.75;;;;;;;;;;4998098;28;20499;-58
2023/07/13 14:53:46;;;;;;;1.70;0.90;;;;;;;;;;5000083;28;20777;-60
2023/07/13 14:56:17;;;;;;;1.23;0.90;;;;;;;;;;4996908;28;20046;-59
2023/07/13 14:58:45;;;;;;;2.20;0.95;;;;;;;;;;5000140;28;20042;-58
2023/07/13 15:01:15;;;;;;;1.05;0.80;;;;;;;;;;4998817;28;20054;-58